Portada
METAR-TAF:

METAR-TAF

Aeroports :

Zagreb, Croàcia

latitud: 45-44N, longitud: 016-04E, altitud: 106 m

Observació

L'informe es va fer fa 5 minuts, a les 00:30 UTC
Vent 4 kt del Oest/Sud-Oest
Temperatura 16°C
Humitat 88%
Pressió 1017 hPa
Visibilitat 10 km o més
sense núvols per sota de 1500 mi sense presència de cumulonimbus.

METAR: LDZA 160030Z 24004KT CAVOK 16/14 Q1017 NOSIG

Hora: 02:35 (00:35 UTC)

Pronòstic

L'informe es va fer fa 1 hora i 10 minuts, a les 23:25 UTC
Pronòstic vàlid del 16 a les 00 UTC al 17 a les 00 UTC
Vent 3 kt del Nord-Est
Visibilitat 10 km o més
sense núvols per sota de 1500 mi sense presència de cumulonimbus.
Temporalment
l' 16 a les 07 UTC al 16 a les 15 UTC
Vent 8 kt del Nord-Est

TAF: LDZA 152325Z 1600/1700 05003KT CAVOK TX30/1613Z TN15/1603Z TEMPO 1607/1615 05008KT

Observacions i pronòstics meteorològics de més de 4000 aeroports (METAR i TAF).

Les estacions disponibles són els punts grocs i vermells al mapa.

Posi el ratolí al punt desitjat per veure el nom de l'estació.

Feu clic per veure les observacions i els pronòstics meteorològics.

Per canviar el mapa: feu clic els botons verds amb una creu de color negre per apropar; al botó verd amb un guió per allunyar la imatge; o en les fletxes verdes per a mapes adjacents.


METAR-TAF: